Time;durP1;ratioP1;P1;durP2;ratioP2;P2;SDS_P1;SDS_P2;PMS_P1;PMS_P2;Temp;Humidity;BMP_temperature;BMP_pressure;BME280_temperature;BME280_humidity;BME280_pressure;Samples;Min_cycle;Max_cycle;Signal;HPM_P1;HPM_P2
2023/03/22 00:01:11;;;;;;;;;;;12.00;99.90;;;;;;4954517;28;19934;-83
2023/03/22 00:03:38;;;;;;;;;;;12.00;99.90;;;;;;4960716;29;19931;-82
2023/03/22 00:06:05;;;;;;;;;;;12.00;99.90;;;;;;4958592;29;19930;-82
2023/03/22 00:08:32;;;;;;;;;;;12.60;99.90;;;;;;4957047;29;19922;-83
2023/03/22 00:10:59;;;;;;;;;;;12.00;99.90;;;;;;4955235;28;19926;-82
2023/03/22 00:13:25;;;;;;;;;;;12.00;99.90;;;;;;4953424;28;19933;-82
2023/03/22 00:15:52;;;;;;;;;;;12.00;99.90;;;;;;4932585;28;20670;-82
2023/03/22 00:18:20;;;;;;;;;;;12.00;99.90;;;;;;4930474;29;19936;-82
2023/03/22 00:20:47;;;;;;;;;;;12.00;99.90;;;;;;4933883;29;19929;-82
2023/03/22 00:23:14;;;;;;;;;;;12.00;99.90;;;;;;4948738;28;20637;-83
2023/03/22 00:25:41;;;;;;;;;;;12.00;99.90;;;;;;4933732;28;20323;-82
2023/03/22 00:28:07;;;;;;;;;;;11.90;99.90;;;;;;4932498;29;19930;-82
2023/03/22 00:30:34;;;;;;;;;;;12.00;99.90;;;;;;4932836;29;19988;-82
2023/03/22 00:33:01;;;;;;;;;;;11.90;99.90;;;;;;4933436;29;19930;-83
2023/03/22 00:35:29;;;;;;;;;;;11.90;99.90;;;;;;4952433;29;19930;-83
2023/03/22 00:37:56;;;;;;;;;;;11.80;99.90;;;;;;4949688;29;19952;-82
2023/03/22 00:40:22;;;;;;;;;;;11.80;99.90;;;;;;4937583;29;19930;-82
2023/03/22 00:42:50;;;;;;;;;;;11.80;99.90;;;;;;4953164;29;20424;-83
2023/03/22 00:45:16;;;;;;;;;;;11.70;99.90;;;;;;4938925;29;20009;-82
2023/03/22 00:47:43;;;;;;;;;;;11.70;99.90;;;;;;4935449;29;19950;-82
2023/03/22 00:50:10;;;;;;;;;;;11.60;99.90;;;;;;4952983;28;19930;-83
2023/03/22 00:52:38;;;;;;;;;;;11.70;99.90;;;;;;4938392;28;19922;-82
2023/03/22 00:55:05;;;;;;;;;;;11.70;99.90;;;;;;4954091;28;19930;-82
2023/03/22 00:57:32;;;;;;;;;;;11.60;99.90;;;;;;4953467;28;19926;-82
2023/03/22 01:00:06;;;;;;;;;;;11.50;99.90;;;;;;4934334;29;19938;-82
2023/03/22 01:02:34;;;;;;;;;;;11.50;99.90;;;;;;4936010;29;19998;-83
2023/03/22 01:05:01;;;;;;;;;;;11.50;99.90;;;;;;4953646;28;19922;-83
2023/03/22 01:07:28;;;;;;;;;;;11.50;99.90;;;;;;4954056;29;20419;-83
2023/03/22 01:09:56;;;;;;;;;;;11.50;99.90;;;;;;4932998;29;19941;-83
2023/03/22 01:12:23;;;;;;;;;;;11.50;99.90;;;;;;4949613;28;19930;-83
2023/03/22 01:14:50;;;;;;;;;;;11.50;99.90;;;;;;4955196;28;19926;-84
2023/03/22 01:17:16;;;;;;;;;;;11.50;99.90;;;;;;4933013;29;19933;-84
2023/03/22 01:19:43;;;;;;;;;;;11.30;99.90;;;;;;4950644;29;19930;-84
2023/03/22 01:22:10;;;;;;;;;;;11.50;99.90;;;;;;4950087;28;19926;-84
2023/03/22 01:24:37;;;;;;;;;;;11.50;99.90;;;;;;4934800;29;19977;-84
2023/03/22 01:27:05;;;;;;;;;;;11.40;99.90;;;;;;4949848;29;19930;-83
2023/03/22 01:29:32;;;;;;;;;;;11.50;99.90;;;;;;4941308;28;19922;-83
2023/03/22 01:31:58;;;;;;;;;;;11.50;99.90;;;;;;4948030;29;19931;-84
2023/03/22 01:34:25;;;;;;;;;;;10.60;99.90;;;;;;4932987;29;19937;-84
2023/03/22 01:36:53;;;;;;;;;;;11.50;99.90;;;;;;4942320;29;19936;-84
2023/03/22 01:39:20;;;;;;;;;;;11.60;99.90;;;;;;4931107;29;19922;-84
2023/03/22 01:41:49;;;;;;;;;;;11.50;99.90;;;;;;4942491;28;20376;-84
2023/03/22 01:44:21;;;;;;;;;;;11.40;99.90;;;;;;4931094;29;19993;-83
2023/03/22 01:46:49;;;;;;;;;;;11.40;99.90;;;;;;4933553;29;19926;-83
2023/03/22 01:49:17;;;;;;;;;;;11.20;99.90;;;;;;4931202;29;19926;-84
2023/03/22 01:51:46;;;;;;;;;;;11.10;99.90;;;;;;4951250;28;20045;-83
2023/03/22 01:54:34;;;;;;;;;;;11.00;99.90;;;;;;4951939;29;20018;-84
2023/03/22 01:57:07;;;;;;;;;;;11.00;99.90;;;;;;4947985;29;20598;-84
2023/03/22 01:59:41;;;;;;;;;;;10.90;99.90;;;;;;4946266;28;19998;-83
2023/03/22 02:02:31;;;;;;;;;;;10.70;99.90;;;;;;4937053;29;19969;-83
2023/03/22 02:05:11;;;;;;;;;;;10.70;99.90;;;;;;4933442;29;19933;-83
2023/03/22 02:07:38;;;;;;;;;;;10.60;99.90;;;;;;4930401;29;19926;-83
2023/03/22 02:10:09;;;;;;;;;;;10.50;99.90;;;;;;4929761;29;20012;-84
2023/03/22 02:12:52;;;;;;;;;;;10.50;99.90;;;;;;4940609;29;20290;-84
2023/03/22 02:15:36;;;;;;;;;;;10.50;99.90;;;;;;4944610;28;20305;-84
2023/03/22 02:18:28;;;;;;;;;;;10.50;99.90;;;;;;4937517;29;19934;-84
2023/03/22 02:21:07;;;;;;;;;;;10.40;99.90;;;;;;4903515;29;1088739;-83
2023/03/22 02:23:51;;;;;;;;;;;10.50;99.90;;;;;;4944177;28;19926;-83
2023/03/22 02:26:33;;;;;;;;;;;10.50;99.90;;;;;;4927733;29;19933;-84
2023/03/22 02:29:02;;;;;;;;;;;10.50;99.90;;;;;;4944901;29;19942;-84
2023/03/22 02:31:40;;;;;;;;;;;10.50;99.90;;;;;;4946304;28;20585;-83
2023/03/22 02:34:27;;;;;;;;;;;10.50;99.90;;;;;;4930182;29;19931;-83
2023/03/22 02:37:18;;;;;;;;;;;10.50;99.90;;;;;;4938938;28;19930;-83
2023/03/22 02:39:50;;;;;;;;;;;10.40;99.90;;;;;;4942806;29;20385;-82
2023/03/22 02:42:32;;;;;;;;;;;10.20;99.90;;;;;;4933603;29;19930;-83
2023/03/22 02:44:59;;;;;;;;;;;;;;;;;;4952870;28;19926;-82
2023/03/22 02:47:29;;;;;;;;;;;10.20;99.90;;;;;;4951691;29;20738;-82
2023/03/22 02:49:56;;;;;;;;;;;;;;;;;;4941729;29;20025;-82
2023/03/22 02:52:25;;;;;;;;;;;10.00;99.90;;;;;;4933752;29;20323;-82
2023/03/22 02:54:57;;;;;;;;;;;9.90;99.90;;;;;;4933205;29;20365;-82
2023/03/22 02:57:27;;;;;;;;;;;10.00;99.90;;;;;;4951271;28;19945;-82
2023/03/22 02:59:55;;;;;;;;;;;9.90;99.90;;;;;;4929036;28;19934;-82
2023/03/22 03:02:23;;;;;;;;;;;9.80;99.90;;;;;;4952628;28;20020;-83
2023/03/22 03:04:50;;;;;;;;;;;9.80;99.90;;;;;;4956584;29;19930;-82
2023/03/22 03:07:19;;;;;;;;;;;9.80;99.90;;;;;;4945380;29;19933;-82
2023/03/22 03:09:46;;;;;;;;;;;9.80;99.90;;;;;;4951419;29;19965;-82
2023/03/22 03:12:18;;;;;;;;;;;9.70;99.90;;;;;;4954409;28;19934;-82
2023/03/22 03:14:48;;;;;;;;;;;9.70;99.90;;;;;;4950582;29;19969;-82
2023/03/22 03:17:43;;;;;;;;;;;9.70;99.90;;;;;;4946250;28;19957;-82
2023/03/22 03:20:23;;;;;;;;;;;9.70;99.90;;;;;;4963433;28;19922;-81
2023/03/22 03:22:56;;;;;;;;;;;9.60;99.90;;;;;;4963840;28;19930;-82
2023/03/22 03:25:26;;;;;;;;;;;9.60;99.90;;;;;;4960137;29;20037;-81
2023/03/22 03:27:58;;;;;;;;;;;9.60;99.90;;;;;;4965483;28;19910;-79
2023/03/22 03:30:29;;;;;;;;;;;9.60;99.90;;;;;;4953409;28;19910;-85
2023/03/22 03:32:58;;;;;;;;;;;9.50;99.90;;;;;;4950884;28;20006;-84
2023/03/22 03:35:26;;;;;;;;;;;9.50;99.90;;;;;;4952250;29;19922;-84
2023/03/22 03:37:56;;;;;;;;;;;9.50;99.90;;;;;;4941124;28;20408;-84
2023/03/22 03:40:24;;;;;;;;;;;9.40;99.90;;;;;;4943538;29;19922;-84
2023/03/22 03:42:53;;;;;;;;;;;9.40;99.90;;;;;;4944840;29;19953;-83
2023/03/22 03:45:21;;;;;;;;;;;9.40;99.90;;;;;;4947241;29;19953;-84
2023/03/22 03:47:54;;;;;;;;;;;9.40;99.90;;;;;;4946170;28;19926;-85
2023/03/22 03:50:20;;;;;;;;;;;9.40;99.90;;;;;;4929484;29;19930;-84
2023/03/22 03:52:47;;;;;;;;;;;9.30;99.90;;;;;;4930263;29;20394;-84
2023/03/22 03:55:14;;;;;;;;;;;9.40;99.90;;;;;;4944878;29;19933;-84
2023/03/22 03:57:41;;;;;;;;;;;9.30;99.90;;;;;;4928438;29;19922;-84
2023/03/22 04:00:09;;;;;;;;;;;9.30;99.90;;;;;;4944732;28;20016;-84
2023/03/22 04:03:01;;;;;;;;;;;9.20;99.90;;;;;;4939301;28;20480;-84
2023/03/22 04:05:47;;;;;;;;;;;9.30;99.90;;;;;;4946399;29;19922;-84
2023/03/22 04:08:14;;;;;;;;;;;9.20;99.90;;;;;;4945571;29;19922;-84
2023/03/22 04:10:41;;;;;;;;;;;9.20;99.90;;;;;;4931187;29;19942;-84
2023/03/22 04:13:09;;;;;;;;;;;9.20;99.90;;;;;;4932270;29;19927;-84
2023/03/22 04:15:37;;;;;;;;;;;9.20;99.90;;;;;;4944277;28;19966;-86
2023/03/22 04:18:10;;;;;;;;;;;9.10;99.90;;;;;;4928896;29;19938;-85
2023/03/22 04:20:40;;;;;;;;;;;9.10;99.90;;;;;;4934533;28;21357;-83
2023/03/22 04:23:09;;;;;;;;;;;9.10;99.90;;;;;;4934927;28;19930;-84
2023/03/22 04:25:36;;;;;;;;;;;9.10;99.90;;;;;;4934043;29;20760;-84
2023/03/22 04:28:08;;;;;;;;;;;9.00;99.90;;;;;;4931998;28;19922;-84
2023/03/22 04:30:35;;;;;;;;;;;9.00;99.90;;;;;;4952398;29;19927;-84
2023/03/22 04:33:27;;;;;;;;;;;9.00;99.90;;;;;;4954303;29;19922;-84
2023/03/22 04:36:14;;;;;;;;;;;8.90;99.90;;;;;;4959624;29;19910;-84
2023/03/22 04:38:52;;;;;;;;;;;8.90;99.90;;;;;;4956173;29;19935;-83
2023/03/22 04:41:23;;;;;;;;;;;8.90;99.90;;;;;;4953821;29;19931;-83
2023/03/22 04:43:52;;;;;;;;;;;8.90;99.90;;;;;;4951758;28;19937;-85
2023/03/22 04:46:20;;;;;;;;;;;8.90;99.90;;;;;;4946953;28;19977;-83
2023/03/22 04:48:54;;;;;;;;;;;8.90;99.90;;;;;;4929806;29;20345;-84
2023/03/22 04:51:21;;;;;;;;;;;8.90;99.90;;;;;;4938166;29;19982;-84
2023/03/22 04:54:03;;;;;;;;;;;9.00;99.90;;;;;;4925331;29;19930;-83
2023/03/22 04:56:30;;;;;;;;;;;;;;;;;;4926450;29;19962;-83
2023/03/22 04:58:57;;;;;;;;;;;9.00;99.90;;;;;;4939264;29;19931;-83
2023/03/22 05:01:24;;;;;;;;;;;9.20;99.90;;;;;;4939322;29;19926;-83
2023/03/22 05:04:01;;;;;;;;;;;9.20;99.90;;;;;;4938844;28;20167;-83
2023/03/22 05:06:31;;;;;;;;;;;9.50;99.90;;;;;;4920754;29;20553;-83
2023/03/22 05:09:06;;;;;;;;;;;9.40;99.90;;;;;;4929816;29;20016;-83
2023/03/22 05:11:32;;;;;;;;;;;9.50;99.90;;;;;;4929941;29;19929;-83
2023/03/22 05:14:22;;;;;;;;;;;9.50;99.90;;;;;;4929105;29;20576;-83
2023/03/22 05:16:49;;;;;;;;;;;9.50;99.90;;;;;;4947416;28;19971;-83
2023/03/22 05:19:21;;;;;;;;;;;9.50;99.90;;;;;;4931012;29;19926;-82
2023/03/22 05:21:56;;;;;;;;;;;9.50;99.90;;;;;;4945664;28;19954;-82
2023/03/22 05:24:24;;;;;;;;;;;9.50;99.90;;;;;;4931242;29;20017;-83
2023/03/22 05:26:52;;;;;;;;;;;9.60;99.90;;;;;;4934142;29;19931;-82
2023/03/22 05:29:21;;;;;;;;;;;9.60;99.90;;;;;;4932373;29;19984;-83
2023/03/22 05:32:10;;;;;;;;;;;9.80;99.90;;;;;;4932908;29;20005;-84
2023/03/22 05:34:41;;;;;;;;;;;9.80;99.90;;;;;;4939363;29;20064;-85
2023/03/22 05:37:28;;;;;;;;;;;9.90;99.90;;;;;;4944749;28;19934;-85
2023/03/22 05:39:57;;;;;;;;;;;9.90;99.90;;;;;;4943154;29;19923;-85
2023/03/22 05:42:35;;;;;;;;;;;9.90;99.90;;;;;;4957057;28;19929;-86
2023/03/22 05:45:06;;;;;;;;;;;9.90;99.90;;;;;;4945335;28;19934;-86
2023/03/22 05:47:33;;;;;;;;;;;9.90;99.90;;;;;;4956083;29;19929;-86
2023/03/22 05:50:07;;;;;;;;;;;10.10;99.90;;;;;;4947912;28;20024;-88
2023/03/22 05:52:34;;;;;;;;;;;10.20;99.90;;;;;;4945987;29;19932;-86
2023/03/22 05:55:17;;;;;;;;;;;10.20;99.90;;;;;;4951162;29;19930;-84
2023/03/22 05:57:45;;;;;;;;;;;10.30;99.90;;;;;;4977184;28;19946;-84
2023/03/22 06:00:14;;;;;;;;;;;10.40;99.90;;;;;;4839111;28;19910;-86
2023/03/22 06:03:02;;;;;;;;;;;11.70;99.90;;;;;;4808381;28;20127;-86
2023/03/22 06:12:03;;;;;;;;;;;10.90;99.90;;;;;;4888244;28;19910;-86
2023/03/22 06:14:30;;;;;;;;;;;10.90;99.90;;;;;;4983782;28;19944;-85
2023/03/22 06:17:43;;;;;;;;;;;11.00;99.90;;;;;;4983494;28;19906;-86
2023/03/22 06:20:21;;;;;;;;;;;11.00;99.90;;;;;;4982990;28;19910;-87
2023/03/22 06:22:54;;;;;;;;;;;12.60;99.90;;;;;;4944616;28;19910;-88
2023/03/22 06:25:34;;;;;;;;;;;11.20;99.90;;;;;;4961580;29;19911;-86
2023/03/22 06:28:02;;;;;;;;;;;11.30;99.90;;;;;;4978263;28;19932;-82
2023/03/22 06:30:38;;;;;;;;;;;11.40;99.90;;;;;;4976377;28;19961;-82
2023/03/22 06:33:16;;;;;;;;;;;11.50;99.90;;;;;;4961754;28;19929;-82
2023/03/22 06:35:47;;;;;;;;;;;11.60;99.90;;;;;;4963464;28;19926;-83
2023/03/22 06:38:20;;;;;;;;;;;11.70;99.90;;;;;;4960607;28;19934;-84
2023/03/22 06:40:47;;;;;;;;;;;11.80;99.90;;;;;;4961218;28;19925;-83
2023/03/22 06:43:15;;;;;;;;;;;11.90;99.90;;;;;;4960318;28;19926;-84
2023/03/22 06:45:45;;;;;;;;;;;11.90;99.90;;;;;;4959045;29;19914;-84
2023/03/22 06:48:12;;;;;;;;;;;12.00;99.90;;;;;;4952120;29;19927;-86
2023/03/22 06:50:50;;;;;;;;;;;12.20;99.90;;;;;;4939634;29;19926;-84
2023/03/22 06:53:26;;;;;;;;;;;12.60;99.90;;;;;;4955902;28;19911;-85
2023/03/22 06:55:53;;;;;;;;;;;12.60;99.90;;;;;;4959978;29;19941;-86
2023/03/22 06:58:24;;;;;;;;;;;12.60;99.90;;;;;;4958966;28;19921;-85
2023/03/22 07:00:51;;;;;;;;;;;12.50;99.90;;;;;;4956606;29;19954;-85
2023/03/22 07:03:23;;;;;;;;;;;12.40;99.90;;;;;;4960247;29;19920;-84
2023/03/22 07:06:00;;;;;;;;;;;12.40;99.90;;;;;;4957886;29;19926;-85
2023/03/22 07:08:30;;;;;;;;;;;12.40;99.90;;;;;;4948168;29;20567;-86
2023/03/22 07:10:57;;;;;;;;;;;12.40;99.90;;;;;;4955303;29;19993;-86
2023/03/22 07:13:26;;;;;;;;;;;12.40;99.90;;;;;;4959248;29;19974;-86
2023/03/22 07:15:57;;;;;;;;;;;12.50;99.90;;;;;;4947608;28;19993;-86
2023/03/22 07:18:51;;;;;;;;;;;12.90;99.90;;;;;;4946995;28;19930;-87
2023/03/22 07:21:18;;;;;;;;;;;13.20;99.90;;;;;;4938345;29;19927;-86
2023/03/22 07:23:50;;;;;;;;;;;13.90;99.90;;;;;;4951747;28;19964;-87
2023/03/22 07:26:19;;;;;;;;;;;15.30;99.90;;;;;;4944845;29;19998;-88
2023/03/22 07:28:50;;;;;;;;;;;16.10;99.90;;;;;;4941343;29;19993;-86
2023/03/22 07:31:18;;;;;;;;;;;16.30;99.90;;;;;;4933584;29;19922;-87
2023/03/22 07:34:02;;;;;;;;;;;16.40;99.90;;;;;;4939451;29;20353;-86
2023/03/22 07:36:32;;;;;;;;;;;16.30;99.90;;;;;;4937456;29;19937;-88
2023/03/22 07:38:59;;;;;;;;;;;15.70;99.90;;;;;;4939567;29;19957;-86
2023/03/22 07:41:33;;;;;;;;;;;12.50;99.90;;;;;;4938301;29;20006;-89
2023/03/22 07:44:19;;;;;;;;;;;15.40;99.90;;;;;;4952703;28;19937;-86
2023/03/22 07:46:56;;;;;;;;;;;15.10;99.90;;;;;;4945396;29;19930;-85
2023/03/22 07:49:30;;;;;;;;;;;14.40;99.90;;;;;;4959342;28;19911;-91
2023/03/22 07:51:56;;;;;;;;;;;14.30;99.90;;;;;;4976583;28;19911;-91
2023/03/22 07:54:24;;;;;;;;;;;14.10;99.90;;;;;;4958367;29;19910;-92
2023/03/22 07:56:50;;;;;;;;;;;14.10;99.90;;;;;;4962914;28;19910;-90
2023/03/22 07:59:17;;;;;;;;;;;13.70;99.90;;;;;;4962710;28;19922;-91
2023/03/22 08:01:46;;;;;;;;;;;13.70;99.90;;;;;;4960964;28;19910;-92
2023/03/22 08:04:23;;;;;;;;;;;13.60;99.90;;;;;;4953876;28;19934;-91
2023/03/22 08:07:04;;;;;;;;;;;13.60;99.90;;;;;;4960477;28;19935;-88
2023/03/22 08:09:32;;;;;;;;;;;13.70;99.90;;;;;;4963469;28;19939;-87
2023/03/22 08:12:00;;;;;;;;;;;13.60;99.90;;;;;;4948003;29;19926;-90
2023/03/22 08:14:27;;;;;;;;;;;13.70;99.90;;;;;;4970928;28;19934;-88
2023/03/22 08:16:55;;;;;;;;;;;13.70;99.90;;;;;;4962764;28;19926;-91
2023/03/22 08:19:23;;;;;;;;;;;13.80;99.90;;;;;;4950939;29;20021;-85
2023/03/22 08:21:50;;;;;;;;;;;13.80;99.90;;;;;;4933692;29;19922;-86
2023/03/22 08:24:40;;;;;;;;;;;13.80;99.90;;;;;;4916663;29;19922;-88
2023/03/22 08:27:13;;;;;;;;;;;13.80;99.90;;;;;;4940328;29;19930;-85
2023/03/22 08:29:46;;;;;;;;;;;13.80;99.90;;;;;;4950254;29;19922;-84
2023/03/22 08:32:15;;;;;;;;;;;13.90;99.90;;;;;;4947688;28;19950;-88
2023/03/22 08:34:43;;;;;;;;;;;13.80;99.90;;;;;;4958114;29;19953;-89
2023/03/22 08:37:11;;;;;;;;;;;13.90;99.90;;;;;;4957028;29;19922;-90
2023/03/22 08:39:38;;;;;;;;;;;13.90;99.90;;;;;;4964573;29;19922;-88
2023/03/22 08:42:21;;;;;;;;;;;13.80;99.90;;;;;;4949127;29;19957;-90
2023/03/22 08:44:50;;;;;;;;;;;13.90;99.90;;;;;;4949358;28;19911;-84
2023/03/22 08:47:19;;;;;;;;;;;14.00;99.90;;;;;;4946296;28;19959;-85
2023/03/22 08:49:47;;;;;;;;;;;14.10;99.90;;;;;;4960214;28;19910;-84
2023/03/22 08:52:25;;;;;;;;;;;14.30;99.90;;;;;;4946768;29;19910;-85
2023/03/22 08:54:59;;;;;;;;;;;14.30;99.90;;;;;;4945508;29;20460;-85
2023/03/22 08:57:49;;;;;;;;;;;14.50;99.90;;;;;;4949782;29;19933;-85
2023/03/22 09:00:51;;;;;;;;;;;14.70;99.90;;;;;;4924733;29;19931;-85
2023/03/22 09:03:45;;;;;;;;;;;13.90;99.90;;;;;;4943741;28;19922;-85
2023/03/22 09:06:12;;;;;;;;;;;15.10;99.90;;;;;;4952157;29;19929;-85
2023/03/22 09:08:41;;;;;;;;;;;15.10;99.90;;;;;;4943364;29;19928;-85
2023/03/22 09:11:14;;;;;;;;;;;15.20;99.90;;;;;;4941505;29;19984;-85
2023/03/22 09:13:43;;;;;;;;;;;;;;;;;;4945658;28;19930;-86
2023/03/22 09:16:10;;;;;;;;;;;14.30;99.90;;;;;;4946101;29;19989;-84
2023/03/22 09:18:37;;;;;;;;;;;15.70;99.90;;;;;;4943324;29;20013;-84
2023/03/22 09:21:11;;;;;;;;;;;15.90;99.90;;;;;;4946614;29;19926;-86
2023/03/22 09:23:55;;;;;;;;;;;16.10;99.90;;;;;;4941067;29;19981;-86
2023/03/22 09:26:29;;;;;;;;;;;16.20;99.90;;;;;;4939929;29;19923;-85
2023/03/22 09:28:56;;;;;;;;;;;16.20;99.90;;;;;;4941032;29;19978;-86
2023/03/22 09:31:26;;;;;;;;;;;16.20;99.90;;;;;;4940961;29;19954;-86
2023/03/22 09:34:16;;;;;;;;;;;16.30;99.90;;;;;;4958551;29;19961;-87
2023/03/22 09:36:47;;;;;;;;;;;16.30;99.90;;;;;;4943270;29;19953;-86
2023/03/22 09:39:19;;;;;;;;;;;16.00;99.90;;;;;;4943643;29;19930;-86
2023/03/22 09:41:55;;;;;;;;;;;15.80;99.90;;;;;;4945090;29;19962;-86
2023/03/22 09:44:27;;;;;;;;;;;15.50;99.90;;;;;;4951995;29;19981;-86
2023/03/22 09:46:58;;;;;;;;;;;15.60;99.90;;;;;;4949634;29;19940;-87
2023/03/22 09:49:30;;;;;;;;;;;17.30;99.90;;;;;;4963562;28;19916;-85
2023/03/22 09:51:57;;;;;;;;;;;;;;;;;;4950137;28;19970;-85
2023/03/22 09:54:31;;;;;;;;;;;15.40;99.90;;;;;;4953292;29;19930;-85
2023/03/22 09:57:02;;;;;;;;;;;15.70;99.90;;;;;;4958346;28;19926;-87
2023/03/22 09:59:34;;;;;;;;;;;16.10;99.90;;;;;;4956826;28;19938;-85
2023/03/22 10:02:05;;;;;;;;;;;16.10;99.90;;;;;;4956758;28;19929;-87
2023/03/22 10:04:40;;;;;;;;;;;16.40;99.90;;;;;;4948510;29;20009;-87
2023/03/22 10:07:15;;;;;;;;;;;16.40;99.90;;;;;;4944821;29;19929;-86
2023/03/22 10:09:49;;;;;;;;;;;16.80;99.90;;;;;;4948060;28;20385;-85
2023/03/22 10:12:23;;;;;;;;;;;16.00;99.90;;;;;;4933463;29;19929;-86
2023/03/22 10:14:54;;;;;;;;;;;16.20;99.90;;;;;;4932343;29;19937;-86
2023/03/22 10:17:25;;;;;;;;;;;16.00;99.90;;;;;;4930317;29;19937;-86
2023/03/22 10:19:54;;;;;;;;;;;16.00;99.90;;;;;;4932165;29;19927;-86
2023/03/22 10:22:24;;;;;;;;;;;16.40;99.90;;;;;;4932795;29;20049;-86
2023/03/22 10:24:53;;;;;;;;;;;16.20;99.90;;;;;;4936276;29;19993;-86
2023/03/22 10:27:23;;;;;;;;;;;16.50;99.90;;;;;;4940242;29;20017;-87
2023/03/22 10:29:52;;;;;;;;;;;16.70;99.90;;;;;;4959632;28;19946;-87
2023/03/22 10:32:23;;;;;;;;;;;17.20;99.90;;;;;;4948367;28;20377;-87
2023/03/22 10:34:53;;;;;;;;;;;18.00;99.90;;;;;;4956431;28;19921;-87
2023/03/22 10:37:23;;;;;;;;;;;16.60;99.90;;;;;;4974142;28;19920;-87
2023/03/22 10:39:52;;;;;;;;;;;16.50;99.90;;;;;;4971339;28;19925;-87
2023/03/22 10:42:24;;;;;;;;;;;16.20;99.90;;;;;;4951816;29;20037;-86
2023/03/22 10:44:54;;;;;;;;;;;17.00;99.90;;;;;;4945546;29;19926;-86
2023/03/22 10:47:30;;;;;;;;;;;16.10;99.90;;;;;;4943393;29;19978;-87
2023/03/22 10:50:01;;;;;;;;;;;16.00;99.90;;;;;;4942740;29;19927;-86
2023/03/22 10:52:36;;;;;;;;;;;15.80;99.90;;;;;;4945554;29;19953;-86
2023/03/22 10:55:10;;;;;;;;;;;15.80;99.90;;;;;;4942706;29;19957;-86
2023/03/22 10:57:39;;;;;;;;;;;15.70;99.90;;;;;;4943825;29;20305;-86
2023/03/22 11:00:10;;;;;;;;;;;15.80;99.90;;;;;;4944039;29;20300;-86
2023/03/22 11:02:47;;;;;;;;;;;16.40;99.90;;;;;;4940458;29;20001;-86
2023/03/22 11:05:29;;;;;;;;;;;15.90;99.90;;;;;;4940487;29;19922;-86
2023/03/22 11:08:00;;;;;;;;;;;16.00;99.90;;;;;;4958330;29;19933;-86
2023/03/22 11:10:29;;;;;;;;;;;16.00;99.90;;;;;;4942332;29;20456;-86
2023/03/22 11:13:11;;;;;;;;;;;16.10;99.90;;;;;;4940451;29;20518;-86
2023/03/22 11:15:39;;;;;;;;;;;16.10;99.90;;;;;;4939875;29;20025;-86
2023/03/22 11:18:08;;;;;;;;;;;16.10;99.90;;;;;;4951444;29;19929;-86
2023/03/22 11:20:35;;;;;;;;;;;16.10;99.90;;;;;;4955327;29;19930;-86
2023/03/22 11:23:05;;;;;;;;;;;16.40;99.90;;;;;;4964843;28;19926;-87
2023/03/22 11:25:35;;;;;;;;;;;15.90;99.90;;;;;;4951155;29;19926;-87
2023/03/22 11:28:17;;;;;;;;;;;15.80;99.90;;;;;;4938843;29;19934;-87
2023/03/22 11:30:58;;;;;;;;;;;17.40;99.90;;;;;;4937134;29;19950;-87
2023/03/22 11:33:27;;;;;;;;;;;15.70;99.90;;;;;;4939299;29;19926;-85
2023/03/22 11:35:56;;;;;;;;;;;15.70;99.90;;;;;;4939246;29;19934;-85
2023/03/22 11:38:25;;;;;;;;;;;;;;;;;;4945127;29;19966;-86
2023/03/22 11:40:55;;;;;;;;;;;15.60;99.90;;;;;;4939597;29;20343;-86
2023/03/22 11:43:25;;;;;;;;;;;15.60;99.90;;;;;;4941164;29;19950;-87
2023/03/22 11:45:56;;;;;;;;;;;15.70;99.90;;;;;;4949148;29;19937;-88
2023/03/22 11:48:26;;;;;;;;;;;15.40;99.90;;;;;;4941833;29;19929;-87
2023/03/22 11:50:54;;;;;;;;;;;15.50;99.90;;;;;;4941008;29;20222;-86
2023/03/22 11:53:24;;;;;;;;;;;15.50;99.90;;;;;;4938943;29;20312;-84
2023/03/22 11:55:53;;;;;;;;;;;15.50;99.90;;;;;;4938977;29;19930;-86
2023/03/22 11:58:24;;;;;;;;;;;15.50;99.90;;;;;;4937882;29;20017;-86
2023/03/22 12:00:54;;;;;;;;;;;15.40;99.90;;;;;;4939110;29;19922;-85
2023/03/22 12:03:22;;;;;;;;;;;15.30;99.90;;;;;;4938882;29;19968;-86
2023/03/22 12:05:51;;;;;;;;;;;16.60;99.90;;;;;;4937992;29;19926;-87
2023/03/22 12:08:33;;;;;;;;;;;;;;;;;;;;;
2023/03/22 12:11:42;;;;;;;;;;;15.40;99.90;;;;;;4949401;29;19933;-86
2023/03/22 12:14:25;;;;;;;;;;;15.50;99.90;;;;;;4938493;28;20572;-86
2023/03/22 12:20:35;;;;;;;;;;;;;;;;;;4880845;29;20021;-86
2023/03/22 12:23:26;;;;;;;;;;;15.50;99.90;;;;;;4947301;28;19922;-86
2023/03/22 12:28:51;;;;;;;;;;;15.50;99.90;;;;;;4954636;29;19930;-86
2023/03/22 12:31:21;;;;;;;;;;;15.50;99.90;;;;;;4967906;28;19931;-86
2023/03/22 12:33:49;;;;;;;;;;;15.40;99.90;;;;;;4957113;29;19926;-86
2023/03/22 12:36:19;;;;;;;;;;;15.30;99.90;;;;;;4951654;29;19922;-86
2023/03/22 12:38:49;;;;;;;;;;;15.30;99.90;;;;;;4934609;29;19926;-86
2023/03/22 12:41:17;;;;;;;;;;;15.20;99.90;;;;;;4938647;29;20025;-85
2023/03/22 12:43:49;;;;;;;;;;;15.10;99.90;;;;;;4939948;29;19992;-85
2023/03/22 12:46:55;;;;;;;;;;;15.00;99.90;;;;;;4954386;28;19918;-84
2023/03/22 12:49:43;;;;;;;;;;;14.90;99.90;;;;;;4957244;28;19922;-84
2023/03/22 12:55:49;;;;;;;;;;;14.70;99.90;;;;;;4938265;28;19917;-84
2023/03/22 12:58:29;;;;;;;;;;;14.70;99.90;;;;;;4953247;28;19938;-84
2023/03/22 13:01:03;;;;;;;;;;;14.80;99.90;;;;;;4961453;28;19914;-84
2023/03/22 13:07:00;;;;;;;;;;;14.80;99.90;;;;;;4931078;29;19922;-85
2023/03/22 13:09:51;;;;;;;;;;;14.80;99.90;;;;;;4932596;29;20262;-85
2023/03/22 13:12:43;;;;;;;;;;;14.90;99.90;;;;;;4934578;28;20029;-85
2023/03/22 13:32:06;;;;;;;;;;;15.10;99.90;;;;;;4929674;29;19922;-84
2023/03/22 13:35:09;;;;;;;;;;;;;;;;;;;;;
2023/03/22 13:38:19;;;;;;;;;;;15.20;99.90;;;;;;4952591;28;20365;-84
2023/03/22 14:18:56;;;;;;;;;;;15.50;99.90;;;;;;4935869;28;20285;-86
2023/03/22 14:22:39;;;;;;;;;;;15.40;99.90;;;;;;4955151;29;19922;-84
2023/03/22 14:25:19;;;;;;;;;;;15.30;99.90;;;;;;4939074;29;19930;-84
2023/03/22 14:27:50;;;;;;;;;;;;;;;;;;4938519;29;20345;-84
2023/03/22 14:30:53;;;;;;;;;;;;;;;;;;;;;
2023/03/22 14:34:02;;;;;;;;;;;15.10;99.90;;;;;;4953112;28;19981;-84
2023/03/22 14:36:38;;;;;;;;;;;15.00;99.90;;;;;;4949614;29;19922;-84
2023/03/22 14:39:15;;;;;;;;;;;15.00;99.90;;;;;;4961377;28;19930;-84
2023/03/22 14:41:58;;;;;;;;;;;15.00;99.90;;;;;;4946253;29;19965;-85
2023/03/22 14:44:26;;;;;;;;;;;15.10;99.90;;;;;;4918707;29;19923;-84
2023/03/22 14:47:01;;;;;;;;;;;15.10;99.90;;;;;;4936716;29;20293;-86
2023/03/22 14:49:30;;;;;;;;;;;16.10;99.90;;;;;;4936982;29;20048;-83
2023/03/22 14:52:02;;;;;;;;;;;15.00;99.90;;;;;;4937656;29;19927;-84
2023/03/22 14:54:37;;;;;;;;;;;15.00;99.90;;;;;;4937755;29;20148;-84
2023/03/22 14:57:07;;;;;;;;;;;14.90;99.90;;;;;;4938303;29;19928;-85
2023/03/22 14:59:35;;;;;;;;;;;15.90;99.90;;;;;;4943787;28;20285;-86
2023/03/22 15:02:05;;;;;;;;;;;;;;;;;;4970596;28;19990;-85
2023/03/22 15:04:34;;;;;;;;;;;14.90;99.90;;;;;;4945619;29;19923;-85
2023/03/22 15:07:02;;;;;;;;;;;14.80;99.90;;;;;;4953750;29;19954;-85
2023/03/22 15:09:43;;;;;;;;;;;14.70;99.90;;;;;;4954204;29;19938;-85
2023/03/22 15:12:13;;;;;;;;;;;14.90;99.90;;;;;;4948468;28;19934;-86
2023/03/22 15:14:40;;;;;;;;;;;14.70;99.90;;;;;;4953791;29;20293;-85
2023/03/22 15:17:08;;;;;;;;;;;14.70;99.90;;;;;;4952478;28;19930;-88
2023/03/22 15:19:37;;;;;;;;;;;14.70;99.90;;;;;;4959182;29;19938;-87
2023/03/22 15:22:04;;;;;;;;;;;14.60;99.90;;;;;;4952838;28;19973;-87
2023/03/22 15:24:35;;;;;;;;;;;14.70;99.90;;;;;;4958435;29;20614;-87
2023/03/22 15:27:03;;;;;;;;;;;14.70;99.90;;;;;;4972663;28;19917;-86
2023/03/22 15:29:34;;;;;;;;;;;14.70;99.90;;;;;;4953881;29;19923;-88
2023/03/22 15:32:02;;;;;;;;;;;14.70;99.90;;;;;;4953093;29;19926;-88
2023/03/22 15:34:31;;;;;;;;;;;14.70;99.90;;;;;;4959121;28;19922;-87
2023/03/22 15:36:59;;;;;;;;;;;14.70;99.90;;;;;;4961593;28;19942;-86
2023/03/22 15:39:27;;;;;;;;;;;14.70;99.90;;;;;;4945580;29;19926;-87
2023/03/22 15:41:58;;;;;;;;;;;14.60;99.90;;;;;;4955095;28;19926;-84
2023/03/22 15:44:28;;;;;;;;;;;14.60;99.90;;;;;;4960345;28;19922;-84
2023/03/22 15:46:56;;;;;;;;;;;14.60;99.90;;;;;;4949686;28;19946;-86
2023/03/22 15:49:34;;;;;;;;;;;14.60;99.90;;;;;;4955383;28;20341;-86
2023/03/22 15:52:10;;;;;;;;;;;14.60;99.90;;;;;;4950158;28;20478;-86
2023/03/22 15:54:41;;;;;;;;;;;14.80;99.90;;;;;;4936610;29;19929;-87
2023/03/22 15:57:16;;;;;;;;;;;14.80;99.90;;;;;;4935342;29;19930;-86
2023/03/22 15:59:51;;;;;;;;;;;14.80;99.90;;;;;;4944685;28;19932;-86
2023/03/22 16:02:26;;;;;;;;;;;14.80;99.90;;;;;;4937710;29;20528;-87
2023/03/22 16:04:57;;;;;;;;;;;14.80;99.90;;;;;;4939027;28;19986;-88
2023/03/22 16:07:25;;;;;;;;;;;14.80;99.90;;;;;;4946597;28;19926;-87
2023/03/22 16:09:55;;;;;;;;;;;14.80;99.90;;;;;;4946285;29;19973;-86
2023/03/22 16:12:25;;;;;;;;;;;14.80;99.90;;;;;;4938865;29;19954;-87
2023/03/22 16:14:53;;;;;;;;;;;14.80;99.90;;;;;;4957107;29;19926;-87